createdAt,value
2023-02-08T00:00:15.172Z,26.80
2023-02-08T00:02:41.414Z,25.60
2023-02-08T00:05:07.721Z,24.80
2023-02-08T00:07:33.945Z,24.77
2023-02-08T00:10:00.201Z,25.87
2023-02-08T00:12:28.145Z,24.87
2023-02-08T00:14:54.801Z,23.57
2023-02-08T00:17:21.055Z,24.83
2023-02-08T00:19:47.564Z,25.23
2023-02-08T00:22:13.842Z,25.73
2023-02-08T00:24:40.080Z,24.33
2023-02-08T00:27:06.727Z,25.13
2023-02-08T00:29:33.539Z,24.13
2023-02-08T00:32:00.012Z,23.90
2023-02-08T00:34:26.363Z,25.23
2023-02-08T00:36:52.687Z,23.73
2023-02-08T00:39:21.088Z,24.77
2023-02-08T00:41:47.841Z,24.17
2023-02-08T00:44:14.122Z,23.77
2023-02-08T00:46:40.374Z,25.47
2023-02-08T00:49:06.617Z,24.43
2023-02-08T00:51:32.881Z,24.37
2023-02-08T00:53:59.120Z,25.40
2023-02-08T00:56:25.333Z,23.63
2023-02-08T00:58:51.552Z,24.17
2023-02-08T01:01:18.020Z,24.40
2023-02-08T01:03:44.621Z,24.00
2023-02-08T01:06:12.985Z,23.87
2023-02-08T01:08:39.231Z,24.53
2023-02-08T01:11:08.198Z,23.13
2023-02-08T01:13:35.765Z,24.43
2023-02-08T01:16:10.283Z,24.90
2023-02-08T01:18:36.791Z,24.53
2023-02-08T01:21:04.143Z,24.53
2023-02-08T01:23:30.390Z,23.23
2023-02-08T01:25:56.630Z,24.90
2023-02-08T01:28:22.925Z,25.43
2023-02-08T01:30:49.355Z,25.57
2023-02-08T01:33:15.591Z,25.60
2023-02-08T01:35:41.830Z,31.33
2023-02-08T01:38:08.069Z,33.60
2023-02-08T01:40:34.315Z,33.40
2023-02-08T01:43:00.531Z,28.17
2023-02-08T01:45:29.793Z,29.93
2023-02-08T01:48:04.688Z,32.57
2023-02-08T01:50:34.325Z,31.97
2023-02-08T01:53:01.010Z,34.53
2023-02-08T01:55:29.816Z,30.90
2023-02-08T01:57:59.974Z,31.47
2023-02-08T02:00:27.143Z,32.07
2023-02-08T02:02:54.340Z,31.13
2023-02-08T02:05:25.240Z,30.47
2023-02-08T02:07:52.232Z,31.83
2023-02-08T02:10:22.751Z,29.90
2023-02-08T02:12:49.365Z,30.10
2023-02-08T02:15:15.599Z,30.40
2023-02-08T02:17:42.086Z,29.83
2023-02-08T02:20:08.443Z,29.87
2023-02-08T02:22:43.344Z,29.43
2023-02-08T02:25:32.773Z,28.90
2023-02-08T02:28:17.925Z,28.77
2023-02-08T02:30:47.276Z,29.70
2023-02-08T02:33:19.629Z,29.33
2023-02-08T02:35:51.406Z,28.63
2023-02-08T02:38:36.210Z,26.23
2023-02-08T02:41:41.100Z,26.03
2023-02-08T02:44:14.092Z,26.73
2023-02-08T02:46:41.984Z,25.67
2023-02-08T02:49:32.650Z,25.60
2023-02-08T02:52:03.406Z,25.17
2023-02-08T02:54:33.769Z,26.60
2023-02-08T02:57:02.052Z,26.33
2023-02-08T02:59:28.757Z,28.03
2023-02-08T03:01:55.778Z,26.97
2023-02-08T03:04:34.563Z,27.20
2023-02-08T03:07:21.069Z,27.37
2023-02-08T03:10:05.780Z,26.87
2023-02-08T03:12:54.955Z,24.47
2023-02-08T03:15:42.977Z,24.30
2023-02-08T03:18:27.266Z,26.40
2023-02-08T03:20:58.546Z,24.53
2023-02-08T03:23:29.293Z,24.13
2023-02-08T03:26:14.054Z,24.87
2023-02-08T03:28:44.549Z,25.30
2023-02-08T03:31:18.418Z,23.67
2023-02-08T03:33:44.678Z,25.67
2023-02-08T03:36:33.061Z,24.03
2023-02-08T03:39:00.129Z,24.20
2023-02-08T03:41:28.462Z,24.03
2023-02-08T03:44:03.500Z,24.20
2023-02-08T03:46:33.305Z,23.60
2023-02-08T03:49:02.810Z,24.33
2023-02-08T03:51:29.986Z,24.03
2023-02-08T03:53:58.242Z,24.97
2023-02-08T03:56:32.411Z,24.00
2023-02-08T03:59:00.311Z,23.67
2023-02-08T04:01:28.891Z,24.20
2023-02-08T04:03:56.338Z,23.90
2023-02-08T04:06:22.711Z,22.70
2023-02-08T04:08:49.234Z,22.87
2023-02-08T04:11:15.458Z,22.13
2023-02-08T04:13:41.685Z,22.40
2023-02-08T04:16:09.204Z,20.97
2023-02-08T04:18:35.469Z,22.23
2023-02-08T04:21:01.711Z,21.97
2023-02-08T04:23:27.925Z,22.13
2023-02-08T04:25:54.186Z,22.13
2023-02-08T04:28:20.505Z,21.90
2023-02-08T04:30:46.958Z,22.77
2023-02-08T04:33:14.837Z,21.37
2023-02-08T04:35:41.847Z,20.77
2023-02-08T04:38:08.692Z,21.50
2023-02-08T04:40:35.938Z,20.77
2023-02-08T04:43:02.422Z,21.30
2023-02-08T04:45:29.903Z,20.53
2023-02-08T04:47:56.664Z,21.53
2023-02-08T04:50:24.077Z,20.03
2023-02-08T04:52:50.290Z,20.13
2023-02-08T04:55:16.563Z,20.80
2023-02-08T04:57:42.798Z,21.63
2023-02-08T05:00:09.338Z,21.73
2023-02-08T05:02:35.596Z,20.53
2023-02-08T05:05:01.853Z,21.50
2023-02-08T05:07:28.126Z,20.77
2023-02-08T05:09:54.338Z,20.77
2023-02-08T05:12:20.553Z,20.80
2023-02-08T05:14:46.766Z,21.10
2023-02-08T05:17:13.006Z,20.53
2023-02-08T05:19:39.224Z,20.43
2023-02-08T05:22:05.521Z,20.77
2023-02-08T05:24:31.802Z,20.07
2023-02-08T05:26:58.070Z,21.10
2023-02-08T05:29:24.380Z,21.27
2023-02-08T05:31:50.641Z,21.70
2023-02-08T05:34:18.045Z,21.47
2023-02-08T05:36:44.316Z,20.63
2023-02-08T05:39:10.534Z,21.43
2023-02-08T05:41:36.772Z,21.40
2023-02-08T05:44:03.000Z,20.57
2023-02-08T05:46:29.304Z,21.07
2023-02-08T05:48:55.616Z,21.40
2023-02-08T05:51:21.900Z,21.60
2023-02-08T05:53:48.144Z,21.13
2023-02-08T05:56:14.448Z,21.47
2023-02-08T05:58:40.682Z,21.47
2023-02-08T06:01:13.577Z,21.77
2023-02-08T06:03:40.087Z,20.73
2023-02-08T06:06:06.892Z,21.60
2023-02-08T06:08:33.358Z,22.43
2023-02-08T06:10:59.577Z,22.63
2023-02-08T06:13:25.806Z,20.70
2023-02-08T06:15:52.033Z,21.67
2023-02-08T06:18:18.412Z,21.60
2023-02-08T06:20:44.670Z,21.00
2023-02-08T06:23:10.938Z,21.00
2023-02-08T06:25:37.233Z,21.70
2023-02-08T06:28:03.570Z,21.10
2023-02-08T06:30:30.262Z,22.83
2023-02-08T06:32:56.820Z,21.20
2023-02-08T06:35:23.065Z,22.03
2023-02-08T06:37:49.293Z,22.03
2023-02-08T06:40:15.567Z,21.70
2023-02-08T06:42:42.995Z,23.13
2023-02-08T06:45:11.029Z,23.03
2023-02-08T06:47:38.386Z,21.63
2023-02-08T06:50:04.811Z,23.00
2023-02-08T06:52:31.038Z,22.47
2023-02-08T06:54:57.298Z,21.77
2023-02-08T06:57:23.540Z,22.57
2023-02-08T06:59:49.805Z,22.63
2023-02-08T07:02:17.478Z,23.07
2023-02-08T07:04:45.251Z,22.17
2023-02-08T07:07:12.170Z,21.43
2023-02-08T07:09:38.475Z,22.33
2023-02-08T07:12:05.438Z,22.00
2023-02-08T07:14:35.801Z,22.87
2023-02-08T07:17:02.338Z,21.77
2023-02-08T07:19:28.893Z,23.37
2023-02-08T07:21:55.423Z,22.43
2023-02-08T07:24:21.910Z,22.77
2023-02-08T07:26:49.268Z,21.83
2023-02-08T07:29:15.529Z,22.27
2023-02-08T07:31:41.767Z,21.90
2023-02-08T07:34:08.022Z,22.13
2023-02-08T07:36:35.742Z,21.63
2023-02-08T07:39:02.797Z,22.33
2023-02-08T07:41:29.043Z,21.30
2023-02-08T07:43:55.263Z,21.03
2023-02-08T07:46:21.903Z,21.67
2023-02-08T07:48:52.675Z,20.73
2023-02-08T07:51:19.072Z,20.30
2023-02-08T07:53:45.288Z,22.03
2023-02-08T07:56:11.555Z,21.43
2023-02-08T07:58:38.316Z,21.67
2023-02-08T08:01:19.509Z,21.20
2023-02-08T08:03:48.078Z,21.13
2023-02-08T08:06:14.323Z,20.50
2023-02-08T08:08:40.550Z,22.13
2023-02-08T08:11:06.813Z,22.93
2023-02-08T08:13:33.044Z,22.27
2023-02-08T08:15:59.350Z,21.37
2023-02-08T08:18:25.585Z,22.77
2023-02-08T08:20:51.803Z,23.30
2023-02-08T08:23:19.533Z,21.00
2023-02-08T08:25:45.946Z,22.57
2023-02-08T08:28:12.282Z,22.07
2023-02-08T08:30:38.795Z,23.80
2023-02-08T08:33:05.169Z,23.00
2023-02-08T08:35:31.400Z,22.43
2023-02-08T08:37:57.683Z,24.67
2023-02-08T08:40:25.224Z,22.73
2023-02-08T08:42:51.549Z,22.30
2023-02-08T08:45:17.859Z,24.13
2023-02-08T08:47:44.157Z,23.33
2023-02-08T08:50:10.441Z,22.43
2023-02-08T08:52:36.668Z,22.87
2023-02-08T08:55:02.966Z,22.87
2023-02-08T08:57:29.236Z,23.40
2023-02-08T08:59:55.488Z,24.07
2023-02-08T09:02:21.726Z,22.37
2023-02-08T09:04:47.980Z,24.03
2023-02-08T09:07:14.301Z,24.00
2023-02-08T09:09:41.379Z,23.63
2023-02-08T09:12:07.669Z,24.10
2023-02-08T09:14:34.020Z,24.67
2023-02-08T09:17:00.290Z,23.80
2023-02-08T09:19:27.804Z,24.87
2023-02-08T09:21:54.293Z,23.53
2023-02-08T09:24:21.504Z,24.93
2023-02-08T09:26:47.806Z,24.97
2023-02-08T09:29:14.099Z,24.27
2023-02-08T09:31:41.791Z,23.73
2023-02-08T09:34:08.154Z,23.67
2023-02-08T09:36:36.251Z,26.73
2023-02-08T09:39:13.579Z,25.50
2023-02-08T09:41:46.732Z,24.23
2023-02-08T09:44:21.953Z,26.37
2023-02-08T09:47:11.073Z,24.93
2023-02-08T09:49:39.653Z,25.53
2023-02-08T09:52:15.853Z,25.90
2023-02-08T09:54:47.547Z,25.40
2023-02-08T09:57:16.465Z,25.77
2023-02-08T09:59:48.123Z,25.40
2023-02-08T10:02:19.352Z,26.53
2023-02-08T10:05:06.636Z,25.23
2023-02-08T10:07:34.495Z,25.70
2023-02-08T10:10:02.166Z,25.17
2023-02-08T10:12:28.375Z,26.10
2023-02-08T10:14:54.577Z,27.13
2023-02-08T10:17:33.558Z,25.33
2023-02-08T10:20:08.751Z,26.23
2023-02-08T10:22:57.196Z,26.37
2023-02-08T10:25:29.400Z,25.93
2023-02-08T10:28:14.300Z,25.83
2023-02-08T10:30:54.442Z,27.07
2023-02-08T10:33:26.442Z,27.87
2023-02-08T10:35:53.240Z,27.47
2023-02-08T10:38:19.453Z,27.57
2023-02-08T10:40:47.646Z,28.17
2023-02-08T10:43:24.446Z,26.03
2023-02-08T10:46:02.332Z,26.87
2023-02-08T10:48:31.421Z,25.43
2023-02-08T10:50:57.699Z,26.33
2023-02-08T10:53:24.002Z,26.53
2023-02-08T10:55:51.531Z,25.33
2023-02-08T10:58:22.036Z,26.13
2023-02-08T11:00:49.099Z,24.63
2023-02-08T11:03:21.741Z,27.67
2023-02-08T11:05:48.296Z,26.63
2023-02-08T11:08:17.661Z,26.83
2023-02-08T11:10:46.583Z,26.60
2023-02-08T11:13:12.796Z,26.73
2023-02-08T11:15:43.520Z,27.77
2023-02-08T11:18:22.287Z,25.50
2023-02-08T11:20:50.051Z,26.63
2023-02-08T11:23:24.255Z,27.17
2023-02-08T11:25:51.424Z,26.07
2023-02-08T11:28:26.248Z,26.47
2023-02-08T11:30:56.676Z,26.00
2023-02-08T11:33:23.339Z,25.33
2023-02-08T11:35:54.203Z,26.30
2023-02-08T11:38:27.289Z,26.60
2023-02-08T11:40:55.242Z,25.93
2023-02-08T11:43:26.695Z,25.53
2023-02-08T11:45:54.070Z,24.67
2023-02-08T11:48:22.759Z,24.70
2023-02-08T11:50:56.440Z,25.77
2023-02-08T11:53:28.011Z,25.73
2023-02-08T11:56:13.243Z,25.87
2023-02-08T11:58:39.469Z,26.73
2023-02-08T12:01:26.026Z,25.83
2023-02-08T12:03:52.440Z,25.97
2023-02-08T12:06:33.831Z,26.40
2023-02-08T12:09:03.203Z,25.77
2023-02-08T12:11:46.736Z,26.90
2023-02-08T12:14:15.877Z,26.97
2023-02-08T12:17:07.690Z,25.13
2023-02-08T12:19:52.874Z,26.70
2023-02-08T12:22:23.665Z,26.80
2023-02-08T12:24:49.874Z,26.20
2023-02-08T12:27:34.913Z,26.03
2023-02-08T12:30:19.935Z,25.27
2023-02-08T12:32:52.104Z,26.13
2023-02-08T12:35:43.401Z,26.17
2023-02-08T12:38:52.317Z,25.53
2023-02-08T12:41:23.440Z,26.47
2023-02-08T12:44:10.073Z,25.90
2023-02-08T12:46:51.860Z,25.70
2023-02-08T12:49:24.293Z,25.63
2023-02-08T12:52:02.791Z,25.40
2023-02-08T12:54:35.253Z,24.47
2023-02-08T12:57:02.875Z,24.77
2023-02-08T12:59:35.678Z,25.00
2023-02-08T13:02:04.853Z,25.63
2023-02-08T13:04:33.959Z,27.90
2023-02-08T13:07:03.120Z,26.60
2023-02-08T13:09:55.604Z,25.70
2023-02-08T13:12:25.735Z,23.83
2023-02-08T13:14:51.942Z,25.53
2023-02-08T13:17:23.495Z,25.37
2023-02-08T13:20:00.261Z,24.87
2023-02-08T13:22:27.476Z,25.60
2023-02-08T13:25:06.437Z,26.80
2023-02-08T13:27:33.581Z,25.87
2023-02-08T13:30:01.074Z,25.13
2023-02-08T13:32:34.653Z,26.27
2023-02-08T13:35:20.664Z,25.50
2023-02-08T13:37:57.950Z,25.47
2023-02-08T13:40:28.802Z,24.60
2023-02-08T13:43:03.261Z,25.63
2023-02-08T13:45:40.391Z,26.80
2023-02-08T13:48:07.528Z,25.77
2023-02-08T13:50:44.972Z,26.63
2023-02-08T13:53:11.842Z,24.50
2023-02-08T13:55:45.961Z,25.47
2023-02-08T13:58:15.078Z,26.27
2023-02-08T14:00:53.528Z,24.27
2023-02-08T14:03:21.305Z,26.80
2023-02-08T14:05:53.737Z,25.50
2023-02-08T14:08:22.486Z,25.50
2023-02-08T14:10:51.814Z,23.23
2023-02-08T14:13:21.059Z,24.83
2023-02-08T14:15:47.790Z,24.67
2023-02-08T14:18:40.393Z,24.40
2023-02-08T14:21:07.351Z,23.60
2023-02-08T14:23:38.263Z,23.67
2023-02-08T14:26:09.895Z,23.70
2023-02-08T14:28:41.593Z,23.77
2023-02-08T14:31:10.905Z,22.13
2023-02-08T14:33:39.096Z,23.63
2023-02-08T14:36:06.957Z,23.33
2023-02-08T14:38:50.643Z,23.20
2023-02-08T14:41:35.639Z,22.77
2023-02-08T14:44:21.891Z,23.23
2023-02-08T14:46:48.203Z,23.80
2023-02-08T14:49:18.445Z,24.03
2023-02-08T14:51:48.788Z,23.33
2023-02-08T14:54:17.465Z,24.30
2023-02-08T14:56:50.187Z,24.37
2023-02-08T14:59:18.969Z,23.67
2023-02-08T15:01:55.160Z,23.33
2023-02-08T15:04:21.522Z,23.07
2023-02-08T15:07:03.508Z,22.00
2023-02-08T15:09:31.144Z,23.37
2023-02-08T15:12:03.836Z,22.60
2023-02-08T15:14:31.151Z,21.97
2023-02-08T15:16:57.924Z,22.03
2023-02-08T15:19:29.096Z,22.47
2023-02-08T15:21:55.405Z,21.33
2023-02-08T15:24:23.201Z,22.27
2023-02-08T15:26:50.824Z,22.50
2023-02-08T15:29:18.909Z,21.87
2023-02-08T15:31:45.762Z,22.90
2023-02-08T15:34:12.081Z,22.30
2023-02-08T15:36:38.886Z,23.17
2023-02-08T15:39:20.146Z,23.37
2023-02-08T15:41:48.150Z,21.83
2023-02-08T15:44:18.021Z,22.53
2023-02-08T15:46:44.866Z,22.07
2023-02-08T15:49:14.391Z,23.00
2023-02-08T15:51:40.730Z,21.70
2023-02-08T15:54:08.533Z,21.63
2023-02-08T15:56:40.022Z,21.93
2023-02-08T15:59:14.655Z,21.73
2023-02-08T16:01:40.946Z,22.20
2023-02-08T16:04:12.254Z,22.83
2023-02-08T16:06:40.394Z,23.17
2023-02-08T16:09:06.846Z,21.33
2023-02-08T16:11:35.274Z,21.57
2023-02-08T16:14:02.512Z,20.87
2023-02-08T16:16:42.220Z,21.80
2023-02-08T16:19:22.530Z,21.43
2023-02-08T16:21:48.943Z,21.43
2023-02-08T16:24:15.140Z,21.47
2023-02-08T16:26:45.415Z,21.40
2023-02-08T16:29:19.679Z,22.17
2023-02-08T16:31:47.423Z,21.07
2023-02-08T16:34:15.437Z,21.20
2023-02-08T16:36:43.333Z,21.53
2023-02-08T16:39:18.770Z,21.67
2023-02-08T16:42:06.465Z,20.73
2023-02-08T16:44:56.600Z,20.20
2023-02-08T16:47:35.555Z,21.80
2023-02-08T16:50:01.834Z,21.30
2023-02-08T16:52:28.141Z,21.67
2023-02-08T16:54:54.414Z,22.00
2023-02-08T16:57:20.725Z,20.47
2023-02-08T16:59:47.008Z,22.40
2023-02-08T17:02:13.294Z,21.00
2023-02-08T17:04:40.326Z,21.83
2023-02-08T17:07:10.501Z,22.27
2023-02-08T17:09:39.420Z,21.63
2023-02-08T17:12:21.464Z,21.70
2023-02-08T17:14:51.088Z,22.00
2023-02-08T17:17:17.450Z,21.03
2023-02-08T17:19:44.514Z,21.50
2023-02-08T17:22:10.770Z,21.53
2023-02-08T17:24:39.133Z,22.40
2023-02-08T17:27:05.936Z,21.77
2023-02-08T17:29:32.216Z,22.43
2023-02-08T17:31:58.544Z,21.40
2023-02-08T17:34:24.845Z,20.87
2023-02-08T17:36:51.256Z,21.17
2023-02-08T17:39:17.787Z,21.17
2023-02-08T17:41:44.154Z,20.47
2023-02-08T17:44:13.188Z,22.23
2023-02-08T17:46:39.516Z,21.77
2023-02-08T17:49:05.763Z,22.27
2023-02-08T17:51:32.954Z,20.43
2023-02-08T17:53:59.252Z,20.57
2023-02-08T17:56:27.145Z,21.97
2023-02-08T17:58:54.485Z,21.40
2023-02-08T18:01:23.187Z,21.90
2023-02-08T18:03:51.144Z,21.83
2023-02-08T18:06:17.619Z,21.77
2023-02-08T18:08:44.258Z,20.50
2023-02-08T18:11:13.987Z,21.83
2023-02-08T18:13:40.237Z,21.17
2023-02-08T18:16:07.399Z,21.10
2023-02-08T18:18:33.650Z,21.00
2023-02-08T18:20:59.879Z,20.50
2023-02-08T18:23:27.202Z,19.40
2023-02-08T18:26:02.335Z,19.60
2023-02-08T18:28:28.690Z,20.50
2023-02-08T18:31:00.539Z,20.03
2023-02-08T18:33:26.846Z,20.57
2023-02-08T18:35:53.092Z,21.67
2023-02-08T18:38:19.400Z,21.37
2023-02-08T18:40:45.636Z,21.77
2023-02-08T18:43:11.917Z,21.17
2023-02-08T18:45:38.154Z,20.50
2023-02-08T18:48:04.426Z,19.97
2023-02-08T18:50:30.662Z,21.43
2023-02-08T18:52:56.911Z,20.53
2023-02-08T18:55:23.157Z,20.80
2023-02-08T18:57:49.422Z,20.93
2023-02-08T19:00:16.161Z,20.80
2023-02-08T19:02:44.047Z,21.80
2023-02-08T19:05:10.555Z,21.10
2023-02-08T19:07:38.674Z,21.70
2023-02-08T19:10:05.177Z,20.70
2023-02-08T19:12:36.556Z,21.67
2023-02-08T19:15:02.902Z,20.97
2023-02-08T19:17:29.130Z,20.53
2023-02-08T19:19:55.350Z,20.70
2023-02-08T19:22:21.578Z,20.83
2023-02-08T19:24:47.807Z,20.93
2023-02-08T19:27:14.058Z,20.13
2023-02-08T19:29:40.376Z,20.57
2023-02-08T19:32:07.995Z,19.50
2023-02-08T19:34:34.321Z,19.07
2023-02-08T19:37:00.985Z,20.33
2023-02-08T19:39:27.554Z,19.33
2023-02-08T19:41:54.232Z,18.50
2023-02-08T19:44:21.235Z,19.83
2023-02-08T19:46:49.318Z,19.53
2023-02-08T19:49:15.674Z,20.30
2023-02-08T19:51:41.990Z,19.80
2023-02-08T19:54:13.066Z,19.23
2023-02-08T19:56:39.582Z,19.93
2023-02-08T19:59:06.833Z,19.13
2023-02-08T20:01:34.272Z,18.27
2023-02-08T20:04:01.583Z,18.10
2023-02-08T20:06:29.261Z,18.43
2023-02-08T20:08:55.515Z,18.53
2023-02-08T20:11:22.843Z,18.87
2023-02-08T20:13:49.683Z,19.93
2023-02-08T20:16:16.642Z,18.53
2023-02-08T20:18:46.241Z,19.80
2023-02-08T20:21:12.734Z,19.17
2023-02-08T20:23:39.525Z,19.57
2023-02-08T20:26:08.815Z,18.93
2023-02-08T20:28:36.154Z,19.90
2023-02-08T20:31:06.148Z,20.37
2023-02-08T20:33:32.449Z,18.57
2023-02-08T20:35:58.686Z,19.90
2023-02-08T20:38:24.995Z,18.93
2023-02-08T20:40:51.216Z,19.70
2023-02-08T20:43:17.440Z,19.27
2023-02-08T20:45:44.102Z,19.17
2023-02-08T20:48:10.477Z,19.47
2023-02-08T20:50:36.743Z,19.27
2023-02-08T20:53:02.998Z,18.67
2023-02-08T20:55:31.822Z,18.57
2023-02-08T20:57:58.089Z,18.20
2023-02-08T21:00:33.524Z,17.90
2023-02-08T21:03:06.510Z,19.53
2023-02-08T21:05:32.751Z,19.10
2023-02-08T21:07:59.913Z,18.43
2023-02-08T21:10:26.147Z,17.63
2023-02-08T21:12:52.428Z,17.60
2023-02-08T21:15:19.681Z,16.80
2023-02-08T21:17:45.992Z,17.30
2023-02-08T21:20:12.805Z,18.37
2023-02-08T21:22:39.335Z,17.37
2023-02-08T21:25:05.698Z,17.40
2023-02-08T21:27:31.932Z,16.40
2023-02-08T21:29:58.251Z,15.90
2023-02-08T21:32:24.580Z,16.50
2023-02-08T21:34:52.024Z,15.70
2023-02-08T21:37:18.267Z,16.87
2023-02-08T21:39:46.541Z,16.40
2023-02-08T21:42:13.534Z,16.37
2023-02-08T21:44:39.845Z,15.37
2023-02-08T21:47:06.088Z,15.50
2023-02-08T21:49:50.881Z,16.60
2023-02-08T21:52:35.561Z,15.97
2023-02-08T21:55:01.817Z,15.60
2023-02-08T21:57:29.222Z,14.57
2023-02-08T21:59:59.332Z,16.57
2023-02-08T22:02:27.758Z,15.30
2023-02-08T22:04:55.509Z,15.53
2023-02-08T22:07:22.326Z,15.47
2023-02-08T22:09:48.622Z,15.43
2023-02-08T22:12:16.128Z,15.30
2023-02-08T22:14:42.372Z,15.40
2023-02-08T22:17:08.723Z,15.03
2023-02-08T22:19:36.533Z,15.93
2023-02-08T22:22:02.774Z,15.60
2023-02-08T22:24:30.560Z,15.67
2023-02-08T22:26:57.985Z,15.73
2023-02-08T22:29:24.290Z,16.63
2023-02-08T22:31:50.658Z,15.73
2023-02-08T22:34:16.932Z,15.97
2023-02-08T22:36:43.179Z,16.77
2023-02-08T22:39:09.422Z,15.33
2023-02-08T22:41:35.647Z,14.63
2023-02-08T22:44:01.898Z,15.37
2023-02-08T22:46:28.196Z,14.93
2023-02-08T22:48:54.488Z,14.63
2023-02-08T22:51:21.781Z,15.27
2023-02-08T22:53:48.058Z,15.33
2023-02-08T22:56:14.996Z,14.87
2023-02-08T22:58:41.216Z,14.63
2023-02-08T23:01:11.316Z,16.13
2023-02-08T23:03:37.803Z,15.40
2023-02-08T23:06:05.099Z,15.83
2023-02-08T23:08:31.514Z,15.57
2023-02-08T23:10:58.629Z,15.60
2023-02-08T23:13:24.869Z,15.10
2023-02-08T23:15:51.339Z,16.03
2023-02-08T23:18:17.596Z,15.80
2023-02-08T23:20:44.237Z,16.43
2023-02-08T23:23:10.625Z,15.90
2023-02-08T23:25:40.420Z,15.43
2023-02-08T23:28:07.645Z,15.97
2023-02-08T23:30:34.144Z,16.17
2023-02-08T23:33:00.713Z,16.57
2023-02-08T23:35:26.976Z,14.40
2023-02-08T23:37:53.197Z,15.50
2023-02-08T23:40:19.500Z,16.03
2023-02-08T23:42:45.981Z,16.30
2023-02-08T23:45:12.578Z,15.03
2023-02-08T23:47:39.626Z,16.10
2023-02-08T23:50:06.850Z,15.77
2023-02-08T23:52:33.585Z,15.40
2023-02-08T23:54:59.842Z,14.63
2023-02-08T23:57:26.129Z,15.70
2023-02-08T23:59:52.358Z,15.77
